Time;durP1;ratioP1;P1;durP2;ratioP2;P2;SDS_P1;SDS_P2;PMS_P1;PMS_P2;Temp;Humidity;BMP_temperature;BMP_pressure;BME280_temperature;BME280_humidity;BME280_pressure;Samples;Min_cycle;Max_cycle;Signal;HPM_P1;HPM_P2
2022/07/14 00:01:06;;;;;;;12.50;7.72;;;;;;;17.87;70.56;100547.88;5091909;28;20490;-70
2022/07/14 00:03:32;;;;;;;7.82;5.90;;;;;;;17.87;70.76;100550.59;5094926;28;20522;-70
2022/07/14 00:05:57;;;;;;;14.05;6.35;;;;;;;17.67;71.18;100525.59;5096516;28;20070;-71
2022/07/14 00:08:25;;;;;;;11.57;6.30;;;;;;;17.68;71.12;100533.50;5096336;28;20048;-70
2022/07/14 00:10:50;;;;;;;12.40;5.95;;;;;;;17.62;72.29;100531.59;5096322;28;20113;-72
2022/07/14 00:13:16;;;;;;;10.65;5.43;;;;;;;17.59;72.13;100537.44;5095588;28;20032;-72
2022/07/14 00:15:41;;;;;;;7.55;4.63;;;;;;;17.49;72.54;100535.19;5077922;28;20067;-70
2022/07/14 00:18:07;;;;;;;9.38;5.47;;;;;;;17.49;73.48;100537.06;5096094;28;20039;-72
2022/07/14 00:20:32;;;;;;;9.30;5.68;;;;;;;17.47;73.14;100534.59;5095956;28;20495;-71
2022/07/14 00:22:58;;;;;;;9.93;4.22;;;;;;;17.41;73.54;100527.38;5095946;28;20059;-68
2022/07/14 00:25:27;;;;;;;9.43;5.40;;;;;;;17.41;73.54;100532.75;5095953;28;20040;-71
2022/07/14 00:27:54;;;;;;;6.43;5.13;;;;;;;17.38;73.80;100525.09;5095602;28;20459;-70
2022/07/14 00:30:20;;;;;;;10.23;4.90;;;;;;;17.31;74.00;100518.91;5095518;28;20040;-71
2022/07/14 00:32:47;;;;;;;10.82;5.72;;;;;;;17.26;74.48;100524.91;5095821;28;20258;-71
2022/07/14 00:35:13;;;;;;;11.95;4.90;;;;;;;17.25;75.12;100523.25;5095832;28;20036;-71
2022/07/14 00:37:38;;;;;;;10.13;4.18;;;;;;;17.07;75.14;100485.47;5095649;28;20043;-71
2022/07/14 00:40:06;;;;;;;6.63;4.20;;;;;;;17.19;75.09;100509.84;5095703;28;20387;-71
2022/07/14 00:42:43;;;;;;;15.50;4.88;;;;;;;17.16;75.63;100508.41;5095374;28;20449;-68
2022/07/14 00:45:11;;;;;;;13.18;4.55;;;;;;;17.14;75.52;100504.28;5095600;28;20036;-69
2022/07/14 00:47:37;;;;;;;6.10;4.45;;;;;;;17.07;76.31;100498.91;5095423;28;20118;-72
2022/07/14 00:50:05;;;;;;;7.57;4.80;;;;;;;17.03;76.39;100501.16;5095352;28;20495;-71
2022/07/14 00:52:31;;;;;;;8.45;5.72;;;;;;;17.02;76.25;100499.53;5095454;28;20499;-70
2022/07/14 00:54:57;;;;;;;9.43;4.88;;;;;;;16.93;76.80;100490.03;5077098;28;20050;-69
2022/07/14 00:57:23;;;;;;;7.68;4.78;;;;;;;16.91;75.96;100488.59;5095168;28;20032;-70
2022/07/14 00:59:49;;;;;;;7.55;5.25;;;;;;;16.99;75.70;100501.81;5095257;28;20449;-70
2022/07/14 01:02:17;;;;;;;7.20;5.00;;;;;;;16.97;75.68;100501.19;5095173;28;20040;-69
2022/07/14 01:04:45;;;;;;;8.40;5.15;;;;;;;16.96;75.84;100497.69;5095157;28;20122;-71
2022/07/14 01:07:12;;;;;;;8.70;5.15;;;;;;;16.95;75.97;100496.03;5095045;28;20075;-70
2022/07/14 01:09:41;;;;;;;8.35;4.60;;;;;;;16.96;76.22;100497.69;5094936;28;20048;-72
2022/07/14 01:12:09;;;;;;;7.78;4.60;;;;;;;16.81;75.81;100472.91;5095083;28;20479;-69
2022/07/14 01:14:35;;;;;;;10.93;4.53;;;;;;;16.94;75.47;100493.56;5095113;28;20067;-70
2022/07/14 01:17:01;;;;;;;6.88;5.07;;;;;;;16.90;75.72;100487.78;5095050;28;20507;-68
2022/07/14 01:19:27;;;;;;;6.35;4.63;;;;;;;16.77;75.64;100466.28;5076884;28;20032;-70
2022/07/14 01:21:54;;;;;;;7.75;4.30;;;;;;;16.92;76.26;100495.63;5094921;28;20399;-70
2022/07/14 01:24:20;;;;;;;11.45;5.00;;;;;;;16.88;76.26;100489.84;5094575;28;20518;-71
2022/07/14 01:26:47;;;;;;;12.00;6.00;;;;;;;16.90;76.29;100486.94;5094686;28;20507;-69
2022/07/14 01:29:14;;;;;;;15.48;5.88;;;;;;;16.92;76.55;100491.06;5094579;28;20406;-71
2022/07/14 01:31:39;;;;;;;12.93;4.97;;;;;;;16.91;76.24;100477.84;5094554;28;20036;-71
2022/07/14 01:34:05;;;;;;;8.85;4.85;;;;;;;16.84;76.07;100467.09;5076299;28;20032;-70
2022/07/14 01:36:30;;;;;;;11.48;4.93;;;;;;;16.94;75.80;100474.72;5094378;28;20036;-69
2022/07/14 01:38:56;;;;;;;7.65;4.20;;;;;;;16.95;75.98;100479.88;5094310;28;20051;-71
2022/07/14 01:41:21;;;;;;;9.68;5.13;;;;;;;16.93;76.28;100475.75;5094419;28;20518;-70
2022/07/14 01:43:48;;;;;;;7.57;4.53;;;;;;;16.92;76.83;100468.72;5094443;28;20040;-68
2022/07/14 01:46:13;;;;;;;9.93;4.40;;;;;;;16.92;76.55;100469.56;5076375;28;20039;-70
2022/07/14 01:48:39;;;;;;;16.75;5.57;;;;;;;16.93;76.32;100465.00;5094290;28;20028;-68
2022/07/14 01:51:05;;;;;;;7.53;5.00;;;;;;;16.94;77.04;100466.66;5094855;28;20117;-68
2022/07/14 01:53:30;;;;;;;13.13;6.03;;;;;;;16.92;76.87;100464.19;5097258;28;20070;-70
2022/07/14 01:55:57;;;;;;;7.18;4.25;;;;;;;16.91;76.69;100461.69;5077796;28;20053;-71
2022/07/14 01:58:22;;;;;;;9.18;4.75;;;;;;;16.93;77.23;100456.94;5094690;28;20063;-70
2022/07/14 02:01:39;;;;;;;11.40;4.93;;;;;;;16.94;77.66;100467.47;5093960;28;20435;-70
2022/07/14 02:03:33;;;;;;;10.50;4.97;;;;;;;16.92;77.06;100460.66;5093738;28;20040;-70
2022/07/14 02:06:00;;;;;;;11.60;4.90;;;;;;;16.94;77.63;100461.28;5093934;28;20090;-70
2022/07/14 02:08:26;;;;;;;12.13;4.88;;;;;;;16.96;77.27;100460.03;5094202;28;20036;-69
2022/07/14 02:13:36;;;;;;;10.18;4.82;;;;;;;16.96;77.57;100454.63;5095417;28;20047;-68
2022/07/14 02:16:22;;;;;;;10.15;4.93;;;;;;;16.98;77.80;100452.56;5080401;28;20032;-68
2022/07/14 02:18:47;;;;;;;13.70;5.30;;;;;;;16.96;77.92;100449.25;5094043;28;20036;-69
2022/07/14 02:21:13;;;;;;;9.40;5.03;;;;;;;16.99;77.24;100454.22;5093626;28;20036;-72
2022/07/14 02:23:38;;;;;;;8.40;5.18;;;;;;;17.06;77.63;100453.34;5093654;28;20491;-71
2022/07/14 02:26:12;;;;;;;9.63;4.80;;;;;;;17.13;76.96;100456.88;5093305;28;20036;-71
2022/07/14 02:28:38;;;;;;;9.80;5.38;;;;;;;17.13;76.97;100454.19;5093571;28;20081;-72
2022/07/14 02:31:04;;;;;;;11.55;4.50;;;;;;;17.19;76.20;100442.56;5093539;28;20028;-69
2022/07/14 02:33:29;;;;;;;16.17;5.57;;;;;;;17.21;75.45;100443.19;5094097;28;20122;-69
2022/07/14 02:35:55;;;;;;;14.90;5.53;;;;;;;17.21;75.11;100435.09;5094354;28;20031;-69
2022/07/14 02:38:21;;;;;;;10.40;4.80;;;;;;;17.31;74.65;100440.84;5096862;28;20040;-71
2022/07/14 02:40:47;;;;;;;8.93;5.00;;;;;;;17.34;74.84;100429.63;5095498;28;20055;-70
2022/07/14 02:43:12;;;;;;;12.20;4.88;;;;;;;17.40;74.35;100431.50;5096922;28;20487;-70
2022/07/14 02:45:38;;;;;;;12.70;5.60;;;;;;;17.57;74.43;100435.31;5097335;28;20407;-69
2022/07/14 02:48:06;;;;;;;10.80;5.13;;;;;;;17.70;73.69;100433.63;5093578;28;20067;-71
2022/07/14 02:50:32;;;;;;;;;;;;;;;17.83;73.62;100436.22;5093525;28;20036;-72
2022/07/14 02:52:57;;;;;;;8.15;5.43;;;;;;;17.76;73.90;100424.69;5093149;28;20413;-70
2022/07/14 02:55:23;;;;;;;5.13;4.25;;;;;;;17.83;73.60;100433.53;5092977;28;20035;-71
2022/07/14 02:57:48;;;;;;;6.50;4.03;;;;;;;17.83;73.27;100423.59;5092975;28;20067;-71
2022/07/14 03:00:14;;;;;;;5.88;4.05;;;;;;;18.05;72.84;100424.06;5074463;28;20043;-70
2022/07/14 03:02:40;;;;;;;5.88;4.43;;;;;;;19.74;68.06;100419.88;5092772;28;20395;-70
2022/07/14 03:05:06;;;;;;;7.93;4.28;;;;;;;21.99;60.24;100416.34;5092942;28;20031;-68
2022/07/14 03:07:32;;;;;;;7.43;3.97;;;;;;;23.86;53.79;100417.16;5092724;28;20483;-71
2022/07/14 03:09:57;;;;;;;5.80;4.00;;;;;;;24.90;49.14;100411.09;5092747;28;20047;-69
2022/07/14 03:12:48;;;;;;;7.30;3.95;;;;;;;25.35;47.43;100412.38;5092918;28;20188;-72
2022/07/14 03:15:13;;;;;;;6.35;3.33;;;;;;;25.73;46.90;100413.81;5092729;28;20608;-69
2022/07/14 03:17:39;;;;;;;8.13;3.30;;;;;;;26.31;46.17;100419.00;5092749;28;20032;-68
2022/07/14 03:20:06;;;;;;;4.40;3.00;;;;;;;27.01;44.05;100411.78;5092630;28;20505;-70
2022/07/14 03:22:32;;;;;;;6.13;3.30;;;;;;;27.40;42.79;100396.25;5093516;28;20488;-68
2022/07/14 03:24:58;;;;;;;8.38;3.55;;;;;;;27.64;41.69;100403.81;5092427;28;20051;-71
2022/07/14 03:27:23;;;;;;;5.32;3.35;;;;;;;27.65;41.88;100399.97;5092335;28;20593;-73
2022/07/14 03:29:49;;;;;;;5.70;3.00;;;;;;;27.61;41.52;100401.59;5092504;28;20050;-70
2022/07/14 03:32:14;;;;;;;5.30;3.10;;;;;;;27.73;41.03;100402.09;5092319;28;20547;-70
2022/07/14 03:34:40;;;;;;;4.53;2.70;;;;;;;27.77;40.63;100392.22;5092331;28;20036;-71
2022/07/14 03:37:05;;;;;;;6.63;2.95;;;;;;;27.80;40.40;100394.41;5073330;28;20036;-71
2022/07/14 03:39:31;;;;;;;6.90;2.90;;;;;;;27.31;41.20;100391.69;5092077;28;20483;-68
2022/07/14 03:41:56;;;;;;;4.97;3.03;;;;;;;25.91;45.17;100396.13;5073921;28;20032;-68
2022/07/14 03:44:21;;;;;;;2.63;2.17;;;;;;;24.50;48.56;100391.81;5092358;28;20075;-72
2022/07/14 03:46:47;;;;;;;10.88;3.15;;;;;;;24.46;49.77;100390.72;5092298;28;20036;-71
2022/07/14 03:49:12;;;;;;;8.35;2.78;;;;;;;24.64;48.57;100382.94;5092087;28;20459;-69
2022/07/14 03:51:42;;;;;;;6.50;2.85;;;;;;;24.30;48.71;100387.09;5092454;28;20044;-72
2022/07/14 03:54:07;;;;;;;5.18;3.00;;;;;;;24.31;48.80;100378.66;5092905;28;20032;-71
2022/07/14 03:56:33;;;;;;;7.95;2.90;;;;;;;23.93;49.35;100378.88;5093182;28;20035;-71
2022/07/14 03:58:58;;;;;;;9.77;3.65;;;;;;;23.54;50.79;100386.41;5093015;28;20039;-70
2022/07/14 04:01:24;;;;;;;4.38;3.05;;;;;;;23.26;51.80;100377.41;5092519;28;20028;-70
2022/07/14 04:03:50;;;;;;;8.07;3.38;;;;;;;23.66;50.80;100387.88;5092052;28;20074;-72
2022/07/14 04:06:15;;;;;;;9.52;2.70;;;;;;;24.82;47.88;100383.53;5091853;28;20066;-72
2022/07/14 04:08:42;;;;;;;6.00;3.22;;;;;;;25.74;44.96;100373.75;5091870;28;20043;-71
2022/07/14 04:11:07;;;;;;;11.23;2.80;;;;;;;26.53;43.68;100375.84;5092226;28;20032;-69
2022/07/14 04:13:34;;;;;;;6.88;2.72;;;;;;;27.08;42.76;100368.56;5092170;28;20372;-70
2022/07/14 04:16:00;;;;;;;13.15;3.67;;;;;;;26.96;42.35;100373.53;5092028;28;20043;-70
2022/07/14 04:18:25;;;;;;;5.70;3.10;;;;;;;27.03;42.52;100369.41;5092065;28;20044;-71
2022/07/14 04:20:51;;;;;;;7.68;2.85;;;;;;;27.19;41.79;100367.44;5092087;28;20503;-69
2022/07/14 04:23:17;;;;;;;5.95;3.35;;;;;;;27.41;41.31;100354.13;5091932;28;20040;-69
2022/07/14 04:25:42;;;;;;;3.67;2.88;;;;;;;27.85;41.22;100358.78;5091734;28;20031;-69
2022/07/14 04:28:09;;;;;;;6.30;3.05;;;;;;;28.00;39.85;100371.50;5092227;28;20486;-72
2022/07/14 04:30:34;;;;;;;9.00;2.78;;;;;;;28.01;40.30;100363.00;5092501;28;20456;-70
2022/07/14 04:32:59;;;;;;;7.35;3.97;;;;;;;27.85;40.15;100364.25;5091583;28;20122;-69
2022/07/14 04:35:25;;;;;;;5.45;3.58;;;;;;;28.04;40.18;100364.34;5073756;28;20391;-69
2022/07/14 04:37:50;;;;;;;4.95;3.47;;;;;;;28.34;39.54;100355.06;5091828;28;20368;-72
2022/07/14 04:40:16;;;;;;;5.57;3.30;;;;;;;28.66;38.98;100354.41;5091625;28;20055;-71
2022/07/14 04:42:42;;;;;;;7.97;2.90;;;;;;;28.53;38.85;100353.19;5091634;28;20036;-70
2022/07/14 04:45:08;;;;;;;6.50;3.30;;;;;;;28.52;38.98;100350.72;5091845;28;20036;-69
2022/07/14 04:47:33;;;;;;;8.32;4.78;;;;;;;28.67;38.86;100354.13;5107294;28;20402;-69
2022/07/14 04:52:49;;;;;;;3.30;2.50;;;;;;;29.11;38.00;100342.03;5095249;28;20604;-69
2022/07/14 04:55:16;;;;;;;12.10;2.72;;;;;;;29.35;37.28;100349.38;5095807;28;20128;-71
2022/07/14 04:57:42;;;;;;;8.52;3.00;;;;;;;29.01;37.81;100342.19;5095327;28;20101;-72
2022/07/14 05:00:09;;;;;;;8.68;2.90;;;;;;;28.57;38.21;100343.25;5095180;28;20063;-71
2022/07/14 05:02:35;;;;;;;9.02;2.80;;;;;;;28.21;39.34;100339.25;5095095;28;20043;-68
2022/07/14 05:05:01;;;;;;;6.03;3.05;;;;;;;28.20;39.37;100340.38;5094926;28;20028;-72
2022/07/14 05:07:26;;;;;;;8.43;3.25;;;;;;;27.90;39.03;100323.16;5095007;28;20391;-71
2022/07/14 05:09:52;;;;;;;8.50;3.03;;;;;;;27.73;39.11;100333.69;5095378;28;20042;-72
2022/07/14 05:12:18;;;;;;;3.92;2.17;;;;;;;28.01;38.93;100329.31;5077212;28;20031;-72
2022/07/14 05:14:45;;;;;;;4.18;2.40;;;;;;;28.25;38.71;100326.66;5076817;28;20205;-68
2022/07/14 05:17:11;;;;;;;5.85;3.00;;;;;;;28.41;38.09;100322.66;5094922;28;20152;-70
2022/07/14 05:19:37;;;;;;;7.78;2.65;;;;;;;28.24;38.68;100323.09;5094684;28;20039;-70
2022/07/14 05:22:03;;;;;;;4.97;2.85;;;;;;;27.63;39.84;100318.19;5095382;28;20039;-71
2022/07/14 05:24:29;;;;;;;8.55;3.33;;;;;;;26.71;41.30;100306.16;5094903;28;20028;-71
2022/07/14 05:26:59;;;;;;;6.65;2.28;;;;;;;25.87;43.82;100313.19;5094650;28;20511;-69
2022/07/14 05:29:26;;;;;;;7.78;2.33;;;;;;;24.26;47.76;100315.97;5094601;28;20040;-70
2022/07/14 05:31:52;;;;;;;4.53;2.20;;;;;;;23.17;50.65;100325.44;5076593;28;20402;-70
2022/07/14 05:34:18;;;;;;;5.53;1.70;;;;;;;22.64;52.45;100330.78;5094357;28;20032;-69
2022/07/14 05:36:43;;;;;;;9.77;1.92;;;;;;;22.52;53.29;100311.88;5095252;28;20122;-69
2022/07/14 05:39:09;;;;;;;8.18;2.67;;;;;;;22.47;53.58;100320.78;5095304;28;20115;-69
2022/07/14 05:41:34;;;;;;;5.45;2.15;;;;;;;22.38;54.12;100299.78;5095718;28;20111;-70
2022/07/14 05:44:00;;;;;;;3.70;2.10;;;;;;;22.29;55.19;100307.53;5095593;28;20036;-68
2022/07/14 05:46:26;;;;;;;7.35;2.78;;;;;;;22.33;55.36;100307.84;5097720;28;20036;-69
2022/07/14 05:48:51;;;;;;;9.48;3.03;;;;;;;22.40;54.07;100305.75;5096482;28;20043;-68
2022/07/14 05:51:20;;;;;;;10.02;3.03;;;;;;;22.43;53.96;100308.78;5094891;28;20391;-68
2022/07/14 05:53:46;;;;;;;9.75;1.90;;;;;;;22.30;53.32;100298.31;5096605;28;20131;-68
2022/07/14 05:56:12;;;;;;;9.68;2.83;;;;;;;22.28;53.86;100305.06;5094866;28;20113;-67
2022/07/14 05:58:39;;;;;;;4.18;2.25;;;;;;;22.29;54.72;100302.09;5094640;28;20499;-70
2022/07/14 06:01:05;;;;;;;5.15;2.08;;;;;;;22.38;54.65;100306.00;5096284;28;20074;-67
2022/07/14 06:03:31;;;;;;;3.45;1.73;;;;;;;22.35;54.14;100292.97;5094626;28;20039;-71
2022/07/14 06:06:02;;;;;;;5.78;2.03;;;;;;;22.31;54.44;100294.53;5094172;28;20612;-70
2022/07/14 06:08:28;;;;;;;6.15;2.55;;;;;;;22.25;54.15;100290.09;5094503;28;20040;-68
2022/07/14 06:10:55;;;;;;;5.97;2.90;;;;;;;22.26;55.64;100297.16;5094066;28;20051;-70
2022/07/14 06:13:26;;;;;;;9.60;3.00;;;;;;;22.35;55.60;100295.66;5058984;28;20121;-71
2022/07/14 06:15:55;;;;;;;6.38;3.58;;;;;;;22.46;54.70;100291.19;5093474;28;20044;-69
2022/07/14 06:18:20;;;;;;;4.10;2.08;;;;;;;22.40;54.07;100295.72;5093717;28;20036;-71
2022/07/14 06:20:47;;;;;;;5.40;2.05;;;;;;;22.18;55.11;100289.47;5093809;28;20048;-68
2022/07/14 06:23:12;;;;;;;6.22;2.33;;;;;;;22.24;55.56;100283.03;5094620;28;20116;-71
2022/07/14 06:25:38;;;;;;;6.88;2.33;;;;;;;22.32;54.85;100296.16;5094537;28;20055;-71
2022/07/14 06:28:05;;;;;;;8.45;1.77;;;;;;;22.39;55.79;100287.84;5093835;28;20059;-72
2022/07/14 06:30:31;;;;;;;8.85;2.17;;;;;;;22.48;53.88;100289.03;5093264;28;20043;-69
2022/07/14 06:32:57;;;;;;;5.32;2.10;;;;;;;22.48;54.83;100289.03;5075253;28;20519;-68
2022/07/14 06:35:23;;;;;;;5.32;2.00;;;;;;;22.54;54.51;100283.41;5093344;28;20062;-69
2022/07/14 06:37:48;;;;;;;3.95;1.88;;;;;;;22.65;54.25;100273.50;5093738;28;20407;-68
2022/07/14 06:40:14;;;;;;;2.42;1.67;;;;;;;22.81;53.51;100282.66;5093238;28;20501;-71
2022/07/14 06:42:39;;;;;;;2.53;2.22;;;;;;;22.94;51.92;100282.28;5092969;28;20040;-69
2022/07/14 06:45:05;;;;;;;3.15;1.92;;;;;;;23.01;51.39;100288.31;5093109;28;20040;-69
2022/07/14 06:47:31;;;;;;;5.65;1.42;;;;;;;23.04;51.44;100282.38;5109043;28;20036;-71
2022/07/14 06:49:59;;;;;;;6.40;1.42;;;;;;;23.07;51.03;100287.28;5093170;28;20081;-69
2022/07/14 06:52:25;;;;;;;2.83;1.33;;;;;;;23.11;51.05;100271.31;5092961;28;20106;-70
2022/07/14 06:54:51;;;;;;;3.00;1.40;;;;;;;23.16;51.23;100274.91;5093066;28;20059;-70
2022/07/14 06:57:18;;;;;;;3.00;1.50;;;;;;;23.29;50.64;100276.38;5092910;28;20044;-71
2022/07/14 06:59:43;;;;;;;9.23;1.90;;;;;;;23.47;51.11;100292.31;5092812;28;20081;-70
2022/07/14 07:02:09;;;;;;;11.88;1.60;;;;;;;23.46;49.82;100285.22;5092864;28;20437;-68
2022/07/14 07:04:34;;;;;;;8.05;1.77;;;;;;;23.36;49.65;100282.41;5092826;28;20036;-71
2022/07/14 07:07:00;;;;;;;1.63;1.10;;;;;;;23.25;50.52;100271.72;5093142;28;20039;-71
2022/07/14 07:09:25;;;;;;;5.60;1.50;;;;;;;23.27;51.35;100283.97;5092813;28;20028;-71
2022/07/14 07:11:51;;;;;;;10.32;1.73;;;;;;;23.11;51.06;100253.09;5074406;28;20402;-72
2022/07/14 07:14:18;;;;;;;14.80;2.25;;;;;;;23.14;51.32;100281.69;5074602;28;20036;-70
2022/07/14 07:16:49;;;;;;;5.32;1.30;;;;;;;23.11;51.27;100284.88;5093282;28;20089;-70
2022/07/14 07:19:15;;;;;;;5.00;1.65;;;;;;;23.04;51.99;100271.50;5093045;28;20047;-73
2022/07/14 07:21:41;;;;;;;29.77;2.72;;;;;;;23.03;51.88;100267.16;5092874;28;20028;-72
2022/07/14 07:24:07;;;;;;;8.73;2.42;;;;;;;23.13;52.62;100270.00;5092922;28;20043;-71
2022/07/14 07:26:36;;;;;;;4.45;1.35;;;;;;;23.11;52.00;100272.13;5092660;28;20113;-74
2022/07/14 07:29:03;;;;;;;6.78;1.90;;;;;;;23.11;52.44;100276.72;5092467;28;20048;-76
2022/07/14 07:31:29;;;;;;;5.25;1.25;;;;;;;22.88;53.29;100267.03;5092571;28;20039;-72
2022/07/14 07:33:54;;;;;;;3.67;1.40;;;;;;;22.69;53.85;100261.06;5092387;28;20039;-73
2022/07/14 07:36:20;;;;;;;7.15;3.33;;;;;;;22.64;54.88;100268.34;5092300;28;20032;-72
2022/07/14 07:38:46;;;;;;;4.38;1.77;;;;;;;22.70;54.81;100270.03;5092164;28;20062;-73
2022/07/14 07:41:11;;;;;;;8.27;1.83;;;;;;;22.79;53.29;100269.31;5093242;28;20068;-75
2022/07/14 07:43:37;;;;;;;7.72;1.75;;;;;;;22.86;52.80;100261.03;5108010;28;20127;-75
2022/07/14 07:46:03;;;;;;;7.88;1.52;;;;;;;23.05;53.59;100248.72;5092373;28;20131;-78
2022/07/14 07:48:32;;;;;;;2.90;1.73;;;;;;;23.35;53.12;100255.50;5074331;28;20495;-74
2022/07/14 07:50:58;;;;;;;14.95;2.38;;;;;;;23.62;52.87;100256.28;5092297;28;20538;-77
2022/07/14 07:53:24;;;;;;;3.85;1.25;;;;;;;23.82;51.38;100244.75;5092681;28;20074;-77
2022/07/14 07:55:51;;;;;;;3.58;1.40;;;;;;;23.83;50.86;100240.13;5095597;28;20120;-76
2022/07/14 07:58:16;;;;;;;11.48;1.65;;;;;;;23.71;51.66;100246.59;5092250;28;20043;-70
2022/07/14 08:00:42;;;;;;;5.78;1.70;;;;;;;23.58;50.92;100228.00;5092243;28;20032;-72
2022/07/14 08:03:08;;;;;;;10.57;1.60;;;;;;;23.58;51.14;100228.00;5092128;28;20055;-69
2022/07/14 08:05:33;;;;;;;6.10;1.55;;;;;;;23.62;51.29;100225.56;5091871;28;20042;-72
2022/07/14 08:07:59;;;;;;;3.72;1.58;;;;;;;23.62;51.78;100223.66;5092152;28;20036;-67
2022/07/14 08:10:26;;;;;;;3.05;1.15;;;;;;;23.64;50.54;100218.78;5092976;28;20036;-67
2022/07/14 08:12:51;;;;;;;5.50;3.95;;;;;;;23.42;51.46;100213.47;5091724;28;20051;-68
2022/07/14 08:15:20;;;;;;;5.00;1.35;;;;;;;23.34;51.43;100200.34;5092361;28;20036;-75
2022/07/14 08:17:47;;;;;;;7.40;2.28;;;;;;;23.25;49.87;100193.75;5074588;28;20564;-77
2022/07/14 08:20:12;;;;;;;4.57;1.13;;;;;;;23.33;50.19;100190.53;5091883;28;20035;-75
2022/07/14 08:22:39;;;;;;;3.33;1.13;;;;;;;23.51;50.46;100189.31;5092099;28;20035;-71
2022/07/14 08:25:08;;;;;;;5.35;1.38;;;;;;;23.64;50.03;100172.56;5095286;28;20031;-68
2022/07/14 08:27:35;;;;;;;4.63;1.35;;;;;;;23.86;49.88;100179.78;5095838;28;20067;-66
2022/07/14 08:30:01;;;;;;;4.70;1.42;;;;;;;23.89;49.23;100157.47;5096027;28;20127;-68
2022/07/14 08:32:40;;;;;;;9.23;1.23;;;;;;;24.03;48.21;100180.41;5095722;28;20040;-67
2022/07/14 08:35:08;;;;;;;5.32;1.20;;;;;;;24.01;47.66;100155.38;5095560;28;20153;-67
2022/07/14 08:37:34;;;;;;;3.65;1.48;;;;;;;24.22;48.27;100157.06;5095400;28;20032;-71
2022/07/14 08:40:00;;;;;;;2.95;1.58;;;;;;;24.42;48.28;100172.69;5095935;28;20077;-69
2022/07/14 08:42:29;;;;;;;10.05;1.83;;;;;;;24.57;48.51;100169.16;5095806;28;20039;-68
2022/07/14 08:44:55;;;;;;;5.75;1.33;;;;;;;24.63;47.17;100155.31;5095508;28;20039;-68
2022/07/14 08:47:21;;;;;;;7.85;1.52;;;;;;;24.58;46.01;100154.50;5095757;28;20028;-68
2022/07/14 08:49:47;;;;;;;24.83;2.15;;;;;;;24.55;44.98;100149.56;5095503;28;20039;-74
2022/07/14 08:52:16;;;;;;;36.28;3.97;;;;;;;24.51;45.01;100156.63;5096162;28;20040;-78
2022/07/14 08:54:45;;;;;;;4.80;1.17;;;;;;;24.59;44.71;100158.84;5078444;28;20039;-77
2022/07/14 08:57:10;;;;;;;25.35;3.13;;;;;;;24.71;45.92;100162.94;5077957;28;20085;-71
2022/07/14 08:59:36;;;;;;;23.40;2.72;;;;;;;24.89;44.79;100156.16;5097741;28;20464;-75
2022/07/14 09:02:01;;;;;;;18.17;1.85;;;;;;;24.99;44.08;100168.97;5096242;28;20040;-73
2022/07/14 09:04:27;;;;;;;15.15;2.47;;;;;;;25.15;44.10;100164.34;5095884;28;20036;-74
2022/07/14 09:06:54;;;;;;;27.13;2.78;;;;;;;25.33;43.82;100177.41;5095657;28;20485;-74
2022/07/14 09:09:25;;;;;;;3.08;1.08;;;;;;;25.57;43.66;100183.09;5095446;28;20039;-70
2022/07/14 09:11:53;;;;;;;8.07;1.33;;;;;;;25.40;42.23;100186.13;5095277;28;20115;-69
2022/07/14 09:14:19;;;;;;;4.18;1.33;;;;;;;25.37;42.65;100194.84;5096532;28;20040;-70
2022/07/14 09:16:45;;;;;;;15.85;2.60;;;;;;;24.97;45.25;100190.19;5099555;28;20048;-70
2022/07/14 09:19:14;;;;;;;5.85;2.38;;;;;;;24.38;47.97;100202.34;5097878;28;20079;-67
2022/07/14 09:21:46;;;;;;;11.50;2.10;;;;;;;23.44;49.82;100191.47;5109717;28;20076;-71
2022/07/14 09:24:14;;;;;;;10.90;2.45;;;;;;;22.88;52.04;100182.84;5102200;28;20054;-69
2022/07/14 09:26:51;;;;;;;15.27;2.20;;;;;;;22.56;53.05;100208.03;5095522;28;20078;-67
2022/07/14 09:29:26;;;;;;;3.58;1.73;;;;;;;22.45;53.36;100202.72;5095324;28;20480;-69
2022/07/14 09:31:52;;;;;;;10.13;1.90;;;;;;;22.32;53.58;100208.53;5078073;28;20431;-69
2022/07/14 09:34:36;;;;;;;7.85;2.70;;;;;;;22.36;54.07;100198.81;5095779;28;20036;-70
2022/07/14 09:37:14;;;;;;;4.15;1.70;;;;;;;22.43;53.42;100211.13;5097408;28;20032;-69
2022/07/14 09:39:55;;;;;;;3.65;1.65;;;;;;;22.35;53.90;100216.19;5078759;28;20424;-76
2022/07/14 09:42:21;;;;;;;6.50;1.52;;;;;;;22.15;54.20;100198.56;5094440;28;20036;-76
2022/07/14 09:44:47;;;;;;;7.20;3.58;;;;;;;22.15;54.99;100197.75;5096162;28;20031;-75
2022/07/14 09:47:13;;;;;;;3.88;2.13;;;;;;;22.07;55.63;100190.88;5096643;28;20480;-68
2022/07/14 09:49:40;;;;;;;5.82;2.42;;;;;;;21.86;56.64;100189.75;5096175;28;20059;-69
2022/07/14 09:52:06;;;;;;;9.60;1.95;;;;;;;21.82;57.32;100177.78;5096252;28;20502;-67
2022/07/14 09:54:50;;;;;;;3.88;2.00;;;;;;;21.87;57.80;100194.09;5094505;28;20028;-69
2022/07/14 09:57:24;;;;;;;10.82;2.33;;;;;;;21.67;59.07;100191.09;5097115;28;20368;-70
2022/07/14 10:00:08;;;;;;;6.68;2.65;;;;;;;21.71;60.22;100189.56;5097176;28;20073;-67
2022/07/14 10:02:38;;;;;;;3.28;1.98;;;;;;;21.67;58.96;100174.84;5094213;28;20035;-68
2022/07/14 10:05:08;;;;;;;3.63;1.88;;;;;;;21.70;58.92;100185.22;5097838;28;20036;-67
2022/07/14 10:07:38;;;;;;;2.70;1.60;;;;;;;21.62;58.80;100172.88;5069506;28;20051;-69
2022/07/14 10:10:12;;;;;;;3.75;1.60;;;;;;;21.77;58.82;100171.47;5097961;28;20067;-68
2022/07/14 10:12:41;;;;;;;7.00;2.53;;;;;;;21.85;58.75;100163.72;5094341;28;20047;-68
2022/07/14 10:15:12;;;;;;;3.70;1.85;;;;;;;22.07;57.61;100157.53;5075419;28;20483;-68
2022/07/14 10:17:40;;;;;;;5.55;2.30;;;;;;;22.16;57.60;100156.00;5075224;28;20040;-67
2022/07/14 10:20:10;;;;;;;6.82;2.85;;;;;;;22.00;57.79;100154.16;5093808;28;20036;-69
2022/07/14 10:22:36;;;;;;;5.97;2.65;;;;;;;21.83;60.17;100155.03;5093708;28;20522;-71
2022/07/14 10:25:06;;;;;;;5.18;2.03;;;;;;;21.61;60.16;100149.56;5093620;28;20032;-68
2022/07/14 10:27:34;;;;;;;6.45;2.35;;;;;;;21.48;61.48;100154.53;5093455;28;20392;-67
2022/07/14 10:30:00;;;;;;;18.03;3.10;;;;;;;21.33;63.36;100152.41;5093456;28;20043;-66
2022/07/14 10:32:51;;;;;;;9.50;3.80;;;;;;;21.26;65.42;100152.59;5075437;28;20266;-70
2022/07/14 10:35:41;;;;;;;5.95;2.90;;;;;;;21.12;66.40;100156.69;5079259;28;20513;-68
2022/07/14 10:38:21;;;;;;;10.00;2.60;;;;;;;20.76;70.78;100149.00;5093159;28;20039;-69
2022/07/14 10:41:14;;;;;;;8.00;2.85;;;;;;;20.19;68.51;100136.28;5093774;28;20130;-68
2022/07/14 10:43:47;;;;;;;7.95;3.50;;;;;;;19.81;74.60;100158.50;5093575;28;20055;-68
2022/07/14 10:46:32;;;;;;;12.13;3.47;;;;;;;19.46;76.93;100153.94;5093938;28;20035;-69
2022/07/14 10:48:58;;;;;;;7.28;4.60;;;;;;;19.32;78.16;100146.28;5093682;28;20081;-68
2022/07/14 10:51:28;;;;;;;8.75;4.50;;;;;;;19.29;78.84;100146.75;5094683;28;20040;-67
2022/07/14 10:54:15;;;;;;;9.98;4.35;;;;;;;19.34;78.63;100161.19;5093582;28;20044;-69
2022/07/14 10:56:43;;;;;;;10.47;4.23;;;;;;;19.31;78.08;100148.16;5093115;28;20484;-67
2022/07/14 10:59:27;;;;;;;8.80;3.55;;;;;;;19.33;78.91;100148.75;5093167;28;20051;-68
2022/07/14 11:02:11;;;;;;;4.78;3.92;;;;;;;19.26;77.90;100137.25;5093744;28;20048;-69
2022/07/14 11:07:43;;;;;;;7.20;3.20;;;;;;;19.13;77.48;100149.13;5093003;28;20082;-68
2022/07/14 11:10:14;;;;;;;7.57;3.67;;;;;;;19.13;79.94;100148.28;5093247;28;20127;-67
2022/07/14 11:13:05;;;;;;;5.10;2.88;;;;;;;19.22;78.61;100148.75;5093455;28;20039;-69
2022/07/14 11:15:45;;;;;;;8.43;3.20;;;;;;;19.30;78.75;100148.41;5094071;28;20040;-69
2022/07/14 11:18:17;;;;;;;4.00;2.50;;;;;;;19.39;78.15;100147.00;5093459;28;20063;-69
2022/07/14 11:20:59;;;;;;;8.10;2.80;;;;;;;19.38;77.05;100139.97;5074656;28;20047;-69
2022/07/14 11:23:30;;;;;;;4.03;2.83;;;;;;;19.31;77.42;100148.16;5092847;28;20042;-70
2022/07/14 11:25:57;;;;;;;3.88;2.80;;;;;;;19.10;77.36;100133.38;5093181;28;20541;-67
2022/07/14 11:28:29;;;;;;;12.57;3.10;;;;;;;19.12;80.81;100160.97;5093217;28;20048;-68
2022/07/14 11:31:17;;;;;;;16.55;3.25;;;;;;;18.77;82.33;100178.94;5093605;28;20040;-70
2022/07/14 11:36:31;;;;;;;14.88;6.43;;;;;;;18.14;88.32;100190.13;5092926;28;20131;-69
2022/07/14 11:39:19;;;;;;;10.23;6.10;;;;;;;17.93;88.90;100202.22;5075612;28;20410;-66